createdAt,value
2022-10-22T00:03:25.661Z,15.00
2022-10-22T00:08:28.048Z,14.32
2022-10-22T00:13:29.625Z,14.45
2022-10-22T00:18:31.037Z,16.27
2022-10-22T00:23:32.468Z,14.18
2022-10-22T00:28:33.861Z,14.48
2022-10-22T00:33:35.236Z,13.73
2022-10-22T00:38:36.687Z,19.35
2022-10-22T00:44:04.425Z,14.25
2022-10-22T00:49:05.883Z,20.08
2022-10-22T00:54:08.734Z,16.25
2022-10-22T00:59:13.498Z,19.33
2022-10-22T01:04:14.964Z,23.00
2022-10-22T01:09:19.014Z,21.20
2022-10-22T01:14:41.263Z,25.80
2022-10-22T01:20:15.952Z,19.48
2022-10-22T01:25:31.046Z,20.27
2022-10-22T01:30:34.006Z,20.13
2022-10-22T01:35:42.539Z,21.00
2022-10-22T01:40:45.404Z,27.05
2022-10-22T01:45:50.032Z,19.48
2022-10-22T01:51:13.310Z,19.13
2022-10-22T01:56:36.173Z,25.27
2022-10-22T02:01:50.193Z,21.85
2022-10-22T02:06:55.386Z,22.30
2022-10-22T02:11:59.577Z,27.25
2022-10-22T02:17:01.540Z,21.52
2022-10-22T02:22:03.841Z,27.20
2022-10-22T02:27:16.718Z,23.77
2022-10-22T02:32:21.706Z,20.00
2022-10-22T02:37:25.764Z,18.45
2022-10-22T02:42:28.623Z,16.95
2022-10-22T02:47:30.010Z,21.95
2022-10-22T02:52:31.378Z,15.95
2022-10-22T02:57:32.987Z,12.60
2022-10-22T03:02:34.610Z,13.20
2022-10-22T03:07:35.992Z,17.85
2022-10-22T03:12:37.395Z,21.00
2022-10-22T03:17:39.167Z,20.40
2022-10-22T03:22:42.749Z,17.30
2022-10-22T03:27:45.236Z,21.38
2022-10-22T03:32:46.622Z,19.70
2022-10-22T03:37:48.204Z,30.15
2022-10-22T03:42:49.672Z,23.35
2022-10-22T03:47:51.031Z,26.15
2022-10-22T03:52:53.296Z,19.15
2022-10-22T03:57:54.646Z,15.70
2022-10-22T04:02:56.072Z,14.80
2022-10-22T04:07:57.419Z,9.32
2022-10-22T04:12:58.768Z,11.57
2022-10-22T04:18:00.128Z,5.10
2022-10-22T04:23:01.465Z,6.03
2022-10-22T04:28:02.966Z,3.45
2022-10-22T04:33:04.318Z,4.13
2022-10-22T04:38:05.723Z,7.40
2022-10-22T04:43:07.120Z,4.32
2022-10-22T04:48:08.588Z,4.43
2022-10-22T04:53:09.926Z,4.20
2022-10-22T04:58:11.258Z,2.45
2022-10-22T05:03:12.679Z,3.58
2022-10-22T05:08:14.018Z,4.97
2022-10-22T05:13:15.368Z,4.97
2022-10-22T05:18:19.004Z,3.33
2022-10-22T05:23:23.286Z,5.33
2022-10-22T05:28:24.721Z,2.55
2022-10-22T05:33:27.322Z,3.65
2022-10-22T05:38:28.954Z,7.22
2022-10-22T05:43:30.858Z,6.80
2022-10-22T05:53:41.488Z,3.17
2022-10-22T05:58:44.395Z,3.80
2022-10-22T06:03:46.981Z,3.03
2022-10-22T06:08:50.616Z,2.15
2022-10-22T06:13:52.335Z,3.47
2022-10-22T06:18:53.696Z,10.10
2022-10-22T06:23:59.395Z,3.70
2022-10-22T06:29:00.807Z,3.55
2022-10-22T06:34:13.228Z,5.57
2022-10-22T06:39:16.925Z,2.65
2022-10-22T06:44:20.141Z,4.05
2022-10-22T06:49:21.752Z,7.47
2022-10-22T06:54:23.524Z,3.25
2022-10-22T06:59:24.959Z,2.45
2022-10-22T07:04:26.359Z,2.10
2022-10-22T07:09:27.758Z,6.60
2022-10-22T07:14:29.131Z,1.48
2022-10-22T07:19:31.417Z,5.45
2022-10-22T07:24:32.781Z,4.75
2022-10-22T07:29:34.735Z,2.45
2022-10-22T07:34:37.597Z,4.20
2022-10-22T07:39:40.862Z,0.73
2022-10-22T07:44:42.246Z,6.18
2022-10-22T07:49:43.612Z,2.03
2022-10-22T07:54:44.975Z,3.67
2022-10-22T07:59:46.340Z,2.45
2022-10-22T08:04:47.677Z,3.78
2022-10-22T08:09:49.307Z,4.53
2022-10-22T08:14:50.829Z,3.50
2022-10-22T08:19:52.189Z,2.10
2022-10-22T08:24:53.572Z,2.05
2022-10-22T08:29:55.000Z,4.80
2022-10-22T08:34:56.559Z,2.22
2022-10-22T08:39:57.926Z,3.17
2022-10-22T08:45:25.329Z,2.15
2022-10-22T08:50:51.589Z,0.75
2022-10-22T08:55:54.372Z,2.63
2022-10-22T09:00:59.975Z,0.65
2022-10-22T09:06:23.978Z,4.20
2022-10-22T09:11:35.582Z,0.93
2022-10-22T09:16:55.556Z,1.20
2022-10-22T09:22:16.731Z,2.60
2022-10-22T09:27:21.446Z,2.58
2022-10-22T09:32:23.142Z,0.40
2022-10-22T09:37:29.866Z,1.85
2022-10-22T09:42:33.239Z,0.90
2022-10-22T09:48:01.043Z,2.13
2022-10-22T09:53:21.785Z,5.72
2022-10-22T09:58:23.310Z,1.77
2022-10-22T10:03:28.263Z,4.20
2022-10-22T10:08:29.996Z,1.10
2022-10-22T10:13:46.347Z,0.20
2022-10-22T10:19:11.982Z,2.37
2022-10-22T10:24:47.228Z,1.27
2022-10-22T10:29:56.688Z,0.60
2022-10-22T10:35:06.785Z,2.47
2022-10-22T10:40:43.755Z,4.47
2022-10-22T10:46:03.746Z,3.43
2022-10-22T10:51:35.470Z,1.40
2022-10-22T10:56:56.563Z,2.70
2022-10-22T11:02:35.331Z,1.27
2022-10-22T11:07:41.667Z,1.25
2022-10-22T11:12:48.786Z,1.00
2022-10-22T11:17:52.966Z,3.85
2022-10-22T11:23:19.376Z,2.85
2022-10-22T11:34:04.689Z,2.08
2022-10-22T11:39:51.101Z,3.95
2022-10-22T11:45:06.386Z,2.40
2022-10-22T11:50:26.138Z,1.60
2022-10-22T11:55:45.955Z,4.65
2022-10-22T12:00:48.527Z,4.22
2022-10-22T12:06:05.348Z,2.88
2022-10-22T12:11:36.316Z,2.42
2022-10-22T12:22:06.758Z,2.17
2022-10-22T12:27:23.245Z,2.33
2022-10-22T12:32:34.801Z,4.65
2022-10-22T12:37:37.181Z,2.65
2022-10-22T12:42:38.573Z,2.13
2022-10-22T12:47:40.364Z,3.90
2022-10-22T12:52:42.346Z,5.25
2022-10-22T12:57:47.206Z,0.70
2022-10-22T13:02:49.076Z,3.95
2022-10-22T13:08:01.482Z,2.47
2022-10-22T13:13:04.064Z,2.17
2022-10-22T13:18:18.831Z,2.70
2022-10-22T13:23:22.799Z,4.25
2022-10-22T13:28:24.994Z,3.85
2022-10-22T13:33:42.378Z,3.38
2022-10-22T13:38:44.669Z,2.10
2022-10-22T13:43:46.174Z,1.75
2022-10-22T13:48:49.739Z,6.65
2022-10-22T13:53:52.926Z,1.50
2022-10-22T13:58:54.946Z,4.40
2022-10-22T14:04:03.943Z,2.42
2022-10-22T14:09:08.844Z,1.17
2022-10-22T14:14:14.290Z,8.45
2022-10-22T14:19:17.790Z,1.33
2022-10-22T14:24:19.242Z,2.45
2022-10-22T14:29:20.639Z,3.58
2022-10-22T14:34:21.971Z,5.28
2022-10-22T14:39:23.377Z,3.15
2022-10-22T14:44:25.420Z,1.88
2022-10-22T14:49:26.834Z,4.28
2022-10-22T14:54:28.199Z,4.45
2022-10-22T14:59:29.659Z,2.38
2022-10-22T15:04:31.065Z,1.77
2022-10-22T15:09:32.472Z,5.22
2022-10-22T15:14:33.884Z,4.55
2022-10-22T15:19:35.330Z,2.65
2022-10-22T15:24:37.110Z,4.82
2022-10-22T15:29:38.485Z,3.42
2022-10-22T15:34:40.583Z,4.70
2022-10-22T15:39:42.626Z,2.60
2022-10-22T15:44:44.476Z,3.20
2022-10-22T15:49:45.855Z,5.00
2022-10-22T15:54:47.534Z,6.75
2022-10-22T15:59:50.058Z,9.05
2022-10-22T16:04:51.412Z,5.25
2022-10-22T16:09:57.263Z,5.68
2022-10-22T16:14:58.632Z,16.83
2022-10-22T16:19:59.996Z,5.70
2022-10-22T16:25:01.424Z,6.15
2022-10-22T16:30:02.998Z,7.38
2022-10-22T16:35:04.710Z,8.95
2022-10-22T16:40:08.494Z,5.75
2022-10-22T16:45:10.704Z,4.07
2022-10-22T16:50:12.599Z,7.70
2022-10-22T16:55:14.006Z,17.05
2022-10-22T17:00:15.744Z,23.90
2022-10-22T17:05:17.102Z,13.70
2022-10-22T17:15:28.290Z,12.18
2022-10-22T17:20:29.823Z,12.52
2022-10-22T17:25:44.500Z,8.70
2022-10-22T17:30:45.878Z,7.03
2022-10-22T17:35:49.250Z,8.95
2022-10-22T17:40:50.662Z,9.90
2022-10-22T17:45:52.055Z,11.23
2022-10-22T17:50:55.757Z,13.68
2022-10-22T17:56:06.922Z,13.43
2022-10-22T18:01:36.328Z,13.35
2022-10-22T18:06:38.159Z,8.20
2022-10-22T18:11:40.283Z,12.65
2022-10-22T18:16:42.008Z,8.55
2022-10-22T18:21:43.401Z,5.93
2022-10-22T18:26:45.031Z,11.25
2022-10-22T18:31:47.471Z,18.75
2022-10-22T18:36:48.948Z,13.68
2022-10-22T18:41:50.737Z,18.80
2022-10-22T18:46:52.346Z,12.15
2022-10-22T18:51:53.695Z,9.52
2022-10-22T18:56:59.351Z,10.27
2022-10-22T19:02:03.368Z,8.13
2022-10-22T19:07:05.482Z,10.60
2022-10-22T19:12:09.030Z,8.55
2022-10-22T19:17:10.446Z,10.55
2022-10-22T19:22:12.010Z,10.93
2022-10-22T19:27:13.424Z,8.77
2022-10-22T19:32:16.514Z,8.73
2022-10-22T19:37:17.876Z,6.57
2022-10-22T19:42:20.710Z,12.23
2022-10-22T19:47:22.081Z,10.55
2022-10-22T19:52:23.534Z,14.90
2022-10-22T19:57:24.920Z,14.57
2022-10-22T20:02:26.772Z,15.57
2022-10-22T20:07:29.143Z,11.85
2022-10-22T20:12:30.770Z,17.58
2022-10-22T20:17:32.256Z,15.93
2022-10-22T20:22:33.696Z,13.25
2022-10-22T20:27:35.263Z,9.98
2022-10-22T20:32:38.007Z,10.98
2022-10-22T20:37:39.407Z,12.63
2022-10-22T20:42:41.130Z,9.90
2022-10-22T20:47:51.821Z,11.65
2022-10-22T20:53:00.099Z,16.73
2022-10-22T20:58:01.524Z,8.13
2022-10-22T21:03:02.957Z,14.20
2022-10-22T21:08:05.175Z,9.23
2022-10-22T21:13:06.579Z,17.05
2022-10-22T21:18:08.666Z,18.23
2022-10-22T21:23:10.090Z,16.23
2022-10-22T21:28:11.442Z,13.35
2022-10-22T21:33:13.031Z,11.75
2022-10-22T21:38:14.376Z,9.02
2022-10-22T21:43:17.354Z,6.05
2022-10-22T21:48:18.744Z,6.18
2022-10-22T21:53:20.104Z,7.30
2022-10-22T21:58:21.483Z,12.73
2022-10-22T22:03:23.807Z,8.65
2022-10-22T22:08:25.992Z,8.88
2022-10-22T22:13:27.376Z,10.70
2022-10-22T22:18:29.773Z,13.20
2022-10-22T22:23:31.599Z,8.63
2022-10-22T22:28:34.784Z,12.40
2022-10-22T22:33:36.181Z,10.00
2022-10-22T22:38:38.513Z,18.25
2022-10-22T22:43:39.866Z,19.50
2022-10-22T22:48:41.234Z,9.30
2022-10-22T22:53:42.603Z,7.40
2022-10-22T22:58:44.432Z,15.27
2022-10-22T23:03:56.886Z,18.10
2022-10-22T23:08:58.689Z,12.93
2022-10-22T23:14:02.056Z,9.57
2022-10-22T23:19:05.246Z,15.45
2022-10-22T23:24:10.972Z,11.68
2022-10-22T23:29:21.458Z,18.27
2022-10-22T23:34:24.971Z,10.02
2022-10-22T23:39:28.321Z,10.35
2022-10-22T23:44:29.886Z,15.40
2022-10-22T23:49:31.512Z,13.45
2022-10-22T23:54:32.869Z,11.20
2022-10-22T23:59:34.371Z,13.27
